sensor_id;sensor_type;location;lat;lon;timestamp;temperature;humidity
19138;DHT22;68178;52.188;5.598;2023-07-08T00:00:44;21.50;99.90
19138;DHT22;68178;52.188;5.598;2023-07-08T00:03:11;21.50;99.90
19138;DHT22;68178;52.188;5.598;2023-07-08T00:05:36;21.40;99.90
19138;DHT22;68178;52.188;5.598;2023-07-08T00:08:02;21.40;99.90
19138;DHT22;68178;52.188;5.598;2023-07-08T00:10:29;21.30;99.90
19138;DHT22;68178;52.188;5.598;2023-07-08T00:12:57;21.30;99.90
19138;DHT22;68178;52.188;5.598;2023-07-08T00:15:31;21.30;99.90
19138;DHT22;68178;52.188;5.598;2023-07-08T00:17:58;21.30;99.90
19138;DHT22;68178;52.188;5.598;2023-07-08T00:22:56;21.10;99.90
19138;DHT22;68178;52.188;5.598;2023-07-08T00:25:22;21.10;99.90
19138;DHT22;68178;52.188;5.598;2023-07-08T00:27:48;20.90;99.90
19138;DHT22;68178;52.188;5.598;2023-07-08T00:32:45;20.80;99.90
19138;DHT22;68178;52.188;5.598;2023-07-08T00:35:11;20.80;99.90
19138;DHT22;68178;52.188;5.598;2023-07-08T00:37:37;20.70;99.90
19138;DHT22;68178;52.188;5.598;2023-07-08T00:40:16;20.70;99.90
19138;DHT22;68178;52.188;5.598;2023-07-08T00:42:44;20.70;99.90
19138;DHT22;68178;52.188;5.598;2023-07-08T00:45:35;20.60;99.90
19138;DHT22;68178;52.188;5.598;2023-07-08T00:48:28;20.60;99.90
19138;DHT22;68178;52.188;5.598;2023-07-08T00:50:54;20.60;99.90
19138;DHT22;68178;52.188;5.598;2023-07-08T00:53:31;20.50;99.90
19138;DHT22;68178;52.188;5.598;2023-07-08T00:56:13;20.40;99.90
19138;DHT22;68178;52.188;5.598;2023-07-08T00:59:06;20.40;99.90
19138;DHT22;68178;52.188;5.598;2023-07-08T01:01:34;20.30;99.90
19138;DHT22;68178;52.188;5.598;2023-07-08T01:04:06;20.30;99.90
19138;DHT22;68178;52.188;5.598;2023-07-08T01:06:36;20.30;99.90
19138;DHT22;68178;52.188;5.598;2023-07-08T01:09:06;20.30;99.90
19138;DHT22;68178;52.188;5.598;2023-07-08T01:11:34;20.30;99.90
19138;DHT22;68178;52.188;5.598;2023-07-08T01:14:01;20.30;99.90
19138;DHT22;68178;52.188;5.598;2023-07-08T01:16:28;20.30;99.90
19138;DHT22;68178;52.188;5.598;2023-07-08T01:18:54;20.30;99.90
19138;DHT22;68178;52.188;5.598;2023-07-08T01:21:38;20.30;99.90
19138;DHT22;68178;52.188;5.598;2023-07-08T01:24:07;20.30;99.90
19138;DHT22;68178;52.188;5.598;2023-07-08T01:26:39;20.30;99.90
19138;DHT22;68178;52.188;5.598;2023-07-08T01:29:05;20.20;99.90
19138;DHT22;68178;52.188;5.598;2023-07-08T01:31:33;20.20;99.90
19138;DHT22;68178;52.188;5.598;2023-07-08T01:33:59;20.20;99.90
19138;DHT22;68178;52.188;5.598;2023-07-08T01:36:26;20.20;99.90
19138;DHT22;68178;52.188;5.598;2023-07-08T01:38:55;20.10;99.90
19138;DHT22;68178;52.188;5.598;2023-07-08T01:41:20;20.20;99.90
19138;DHT22;68178;52.188;5.598;2023-07-08T01:43:46;20.30;99.90
19138;DHT22;68178;52.188;5.598;2023-07-08T01:46:15;20.30;99.90
19138;DHT22;68178;52.188;5.598;2023-07-08T01:48:47;20.20;99.90
19138;DHT22;68178;52.188;5.598;2023-07-08T01:51:13;20.30;99.90
19138;DHT22;68178;52.188;5.598;2023-07-08T01:53:41;20.20;99.90
19138;DHT22;68178;52.188;5.598;2023-07-08T01:56:08;20.30;99.90
19138;DHT22;68178;52.188;5.598;2023-07-08T01:58:34;20.30;99.90
19138;DHT22;68178;52.188;5.598;2023-07-08T02:01:00;20.30;99.90
19138;DHT22;68178;52.188;5.598;2023-07-08T02:03:26;20.30;99.90
19138;DHT22;68178;52.188;5.598;2023-07-08T02:05:52;20.40;99.90
19138;DHT22;68178;52.188;5.598;2023-07-08T02:08:18;20.50;99.90
19138;DHT22;68178;52.188;5.598;2023-07-08T02:10:54;20.40;99.90
19138;DHT22;68178;52.188;5.598;2023-07-08T02:13:20;20.40;99.90
19138;DHT22;68178;52.188;5.598;2023-07-08T02:15:46;20.40;99.90
19138;DHT22;68178;52.188;5.598;2023-07-08T02:18:11;20.40;99.90
19138;DHT22;68178;52.188;5.598;2023-07-08T02:20:37;20.30;99.90
19138;DHT22;68178;52.188;5.598;2023-07-08T02:23:02;20.40;99.90
19138;DHT22;68178;52.188;5.598;2023-07-08T02:25:28;20.40;99.90
19138;DHT22;68178;52.188;5.598;2023-07-08T02:27:54;20.50;99.90
19138;DHT22;68178;52.188;5.598;2023-07-08T02:30:26;20.40;99.90
19138;DHT22;68178;52.188;5.598;2023-07-08T02:32:52;20.40;99.90
19138;DHT22;68178;52.188;5.598;2023-07-08T02:35:28;20.50;99.90
19138;DHT22;68178;52.188;5.598;2023-07-08T02:37:55;20.40;99.90
19138;DHT22;68178;52.188;5.598;2023-07-08T02:40:22;20.40;99.90
19138;DHT22;68178;52.188;5.598;2023-07-08T02:42:48;20.50;99.90
19138;DHT22;68178;52.188;5.598;2023-07-08T02:45:14;20.30;99.90
19138;DHT22;68178;52.188;5.598;2023-07-08T02:47:40;20.40;99.90
19138;DHT22;68178;52.188;5.598;2023-07-08T02:50:08;20.40;99.90
19138;DHT22;68178;52.188;5.598;2023-07-08T02:52:34;20.30;99.90
19138;DHT22;68178;52.188;5.598;2023-07-08T02:54:59;20.40;99.90
19138;DHT22;68178;52.188;5.598;2023-07-08T02:57:25;20.30;99.90
19138;DHT22;68178;52.188;5.598;2023-07-08T02:59:51;20.40;99.90
19138;DHT22;68178;52.188;5.598;2023-07-08T03:02:16;20.30;99.90
19138;DHT22;68178;52.188;5.598;2023-07-08T03:04:42;20.40;99.90
19138;DHT22;68178;52.188;5.598;2023-07-08T03:07:08;20.30;99.90
19138;DHT22;68178;52.188;5.598;2023-07-08T03:09:40;20.30;99.90
19138;DHT22;68178;52.188;5.598;2023-07-08T03:12:10;20.30;99.90
19138;DHT22;68178;52.188;5.598;2023-07-08T03:14:36;20.30;99.90
19138;DHT22;68178;52.188;5.598;2023-07-08T03:17:02;20.30;99.90
19138;DHT22;68178;52.188;5.598;2023-07-08T03:19:28;20.30;99.90
19138;DHT22;68178;52.188;5.598;2023-07-08T03:21:54;20.20;99.90
19138;DHT22;68178;52.188;5.598;2023-07-08T03:24:19;20.20;99.90
19138;DHT22;68178;52.188;5.598;2023-07-08T03:26:46;20.20;99.90
19138;DHT22;68178;52.188;5.598;2023-07-08T03:29:16;20.20;99.90
19138;DHT22;68178;52.188;5.598;2023-07-08T03:31:42;20.30;99.90
19138;DHT22;68178;52.188;5.598;2023-07-08T03:34:12;20.20;99.90
19138;DHT22;68178;52.188;5.598;2023-07-08T03:36:50;20.30;99.90
19138;DHT22;68178;52.188;5.598;2023-07-08T03:39:17;20.20;99.90
19138;DHT22;68178;52.188;5.598;2023-07-08T03:41:42;20.20;99.90
19138;DHT22;68178;52.188;5.598;2023-07-08T03:44:08;20.20;99.90
19138;DHT22;68178;52.188;5.598;2023-07-08T03:46:34;20.10;99.90
19138;DHT22;68178;52.188;5.598;2023-07-08T03:48:59;20.10;99.90
19138;DHT22;68178;52.188;5.598;2023-07-08T03:51:29;20.20;99.90
19138;DHT22;68178;52.188;5.598;2023-07-08T03:53:55;20.10;99.90
19138;DHT22;68178;52.188;5.598;2023-07-08T03:56:20;20.10;99.90
19138;DHT22;68178;52.188;5.598;2023-07-08T03:58:46;20.10;99.90
19138;DHT22;68178;52.188;5.598;2023-07-08T04:01:19;20.20;99.90
19138;DHT22;68178;52.188;5.598;2023-07-08T04:03:54;20.10;99.90
19138;DHT22;68178;52.188;5.598;2023-07-08T04:06:20;20.10;99.90
19138;DHT22;68178;52.188;5.598;2023-07-08T04:08:47;20.10;99.90
19138;DHT22;68178;52.188;5.598;2023-07-08T04:11:14;20.10;99.90
19138;DHT22;68178;52.188;5.598;2023-07-08T04:13:40;20.10;99.90
19138;DHT22;68178;52.188;5.598;2023-07-08T04:16:06;20.00;99.90
19138;DHT22;68178;52.188;5.598;2023-07-08T04:18:32;20.00;99.90
19138;DHT22;68178;52.188;5.598;2023-07-08T04:20:58;20.00;99.90
19138;DHT22;68178;52.188;5.598;2023-07-08T04:23:25;20.00;99.90
19138;DHT22;68178;52.188;5.598;2023-07-08T04:25:52;20.00;99.90
19138;DHT22;68178;52.188;5.598;2023-07-08T04:28:20;20.00;99.90
19138;DHT22;68178;52.188;5.598;2023-07-08T04:30:47;20.00;99.90
19138;DHT22;68178;52.188;5.598;2023-07-08T04:33:14;20.10;99.90
19138;DHT22;68178;52.188;5.598;2023-07-08T04:35:41;20.10;99.90
19138;DHT22;68178;52.188;5.598;2023-07-08T04:40:39;20.10;99.90
19138;DHT22;68178;52.188;5.598;2023-07-08T04:43:06;20.10;99.90
19138;DHT22;68178;52.188;5.598;2023-07-08T04:45:32;20.20;99.90
19138;DHT22;68178;52.188;5.598;2023-07-08T04:47:58;20.10;99.90
19138;DHT22;68178;52.188;5.598;2023-07-08T04:50:24;20.10;99.90
19138;DHT22;68178;52.188;5.598;2023-07-08T04:52:50;20.10;99.90
19138;DHT22;68178;52.188;5.598;2023-07-08T04:55:16;20.20;99.90
19138;DHT22;68178;52.188;5.598;2023-07-08T04:57:42;20.30;99.90
19138;DHT22;68178;52.188;5.598;2023-07-08T05:00:12;20.30;99.90
19138;DHT22;68178;52.188;5.598;2023-07-08T05:02:41;20.30;99.90
19138;DHT22;68178;52.188;5.598;2023-07-08T05:05:07;20.30;99.90
19138;DHT22;68178;52.188;5.598;2023-07-08T05:07:32;20.40;99.90
19138;DHT22;68178;52.188;5.598;2023-07-08T05:09:58;20.50;99.90
19138;DHT22;68178;52.188;5.598;2023-07-08T05:12:25;20.50;99.90
19138;DHT22;68178;52.188;5.598;2023-07-08T05:14:51;20.60;99.90
19138;DHT22;68178;52.188;5.598;2023-07-08T05:17:17;20.60;99.90
19138;DHT22;68178;52.188;5.598;2023-07-08T05:19:42;20.70;99.90
19138;DHT22;68178;52.188;5.598;2023-07-08T05:22:10;20.70;99.90
19138;DHT22;68178;52.188;5.598;2023-07-08T05:24:36;20.80;99.90
19138;DHT22;68178;52.188;5.598;2023-07-08T05:27:02;20.90;99.90
19138;DHT22;68178;52.188;5.598;2023-07-08T05:29:29;20.90;99.90
19138;DHT22;68178;52.188;5.598;2023-07-08T05:31:55;21.00;99.90
19138;DHT22;68178;52.188;5.598;2023-07-08T05:34:20;21.10;99.90
19138;DHT22;68178;52.188;5.598;2023-07-08T05:36:46;21.20;99.90
19138;DHT22;68178;52.188;5.598;2023-07-08T05:39:11;21.10;99.90
19138;DHT22;68178;52.188;5.598;2023-07-08T05:41:37;21.20;99.90
19138;DHT22;68178;52.188;5.598;2023-07-08T05:44:03;21.20;99.90
19138;DHT22;68178;52.188;5.598;2023-07-08T05:46:28;21.30;99.90
19138;DHT22;68178;52.188;5.598;2023-07-08T05:48:54;21.40;99.90
19138;DHT22;68178;52.188;5.598;2023-07-08T05:51:20;21.50;99.90
19138;DHT22;68178;52.188;5.598;2023-07-08T05:53:46;21.60;99.90
19138;DHT22;68178;52.188;5.598;2023-07-08T05:56:11;21.70;99.90
19138;DHT22;68178;52.188;5.598;2023-07-08T05:58:37;21.70;99.90
19138;DHT22;68178;52.188;5.598;2023-07-08T06:01:02;21.80;99.90
19138;DHT22;68178;52.188;5.598;2023-07-08T06:03:28;21.90;99.90
19138;DHT22;68178;52.188;5.598;2023-07-08T06:05:54;22.00;99.90
19138;DHT22;68178;52.188;5.598;2023-07-08T06:08:19;22.00;99.90
19138;DHT22;68178;52.188;5.598;2023-07-08T06:10:45;22.00;99.90
19138;DHT22;68178;52.188;5.598;2023-07-08T06:13:12;22.10;99.90
19138;DHT22;68178;52.188;5.598;2023-07-08T06:15:38;22.20;99.90
19138;DHT22;68178;52.188;5.598;2023-07-08T06:18:04;22.30;99.90
19138;DHT22;68178;52.188;5.598;2023-07-08T06:20:30;22.40;99.90
19138;DHT22;68178;52.188;5.598;2023-07-08T06:22:55;22.40;99.90
19138;DHT22;68178;52.188;5.598;2023-07-08T06:25:21;22.30;99.90
19138;DHT22;68178;52.188;5.598;2023-07-08T06:27:47;22.50;99.90
19138;DHT22;68178;52.188;5.598;2023-07-08T06:30:12;22.60;99.90
19138;DHT22;68178;52.188;5.598;2023-07-08T06:32:38;22.70;99.90
19138;DHT22;68178;52.188;5.598;2023-07-08T06:35:04;22.70;99.90
19138;DHT22;68178;52.188;5.598;2023-07-08T06:37:30;22.80;99.90
19138;DHT22;68178;52.188;5.598;2023-07-08T06:39:55;22.90;99.90
19138;DHT22;68178;52.188;5.598;2023-07-08T06:42:21;23.00;99.90
19138;DHT22;68178;52.188;5.598;2023-07-08T06:44:46;23.10;99.90
19138;DHT22;68178;52.188;5.598;2023-07-08T06:47:19;23.10;99.90
19138;DHT22;68178;52.188;5.598;2023-07-08T06:49:46;23.30;99.90
19138;DHT22;68178;52.188;5.598;2023-07-08T06:52:12;23.30;99.90
19138;DHT22;68178;52.188;5.598;2023-07-08T06:54:37;23.30;99.90
19138;DHT22;68178;52.188;5.598;2023-07-08T06:57:04;23.40;99.90
19138;DHT22;68178;52.188;5.598;2023-07-08T06:59:30;23.50;99.90
19138;DHT22;68178;52.188;5.598;2023-07-08T07:01:55;23.50;99.90
19138;DHT22;68178;52.188;5.598;2023-07-08T07:04:21;23.50;99.90
19138;DHT22;68178;52.188;5.598;2023-07-08T07:06:47;23.70;99.90
19138;DHT22;68178;52.188;5.598;2023-07-08T07:09:12;23.80;99.90
19138;DHT22;68178;52.188;5.598;2023-07-08T07:11:38;23.80;99.90
19138;DHT22;68178;52.188;5.598;2023-07-08T07:14:03;24.00;99.90
19138;DHT22;68178;52.188;5.598;2023-07-08T07:16:29;24.10;99.90
19138;DHT22;68178;52.188;5.598;2023-07-08T07:18:55;24.30;99.90
19138;DHT22;68178;52.188;5.598;2023-07-08T07:21:21;24.40;99.90
19138;DHT22;68178;52.188;5.598;2023-07-08T07:23:46;24.40;99.90
19138;DHT22;68178;52.188;5.598;2023-07-08T07:26:12;24.60;99.90
19138;DHT22;68178;52.188;5.598;2023-07-08T07:28:38;24.70;99.90
19138;DHT22;68178;52.188;5.598;2023-07-08T07:31:04;24.80;99.90
19138;DHT22;68178;52.188;5.598;2023-07-08T07:33:31;25.00;99.90
19138;DHT22;68178;52.188;5.598;2023-07-08T07:35:58;25.10;99.90
19138;DHT22;68178;52.188;5.598;2023-07-08T07:38:23;25.20;99.90
19138;DHT22;68178;52.188;5.598;2023-07-08T07:40:54;25.30;99.90
19138;DHT22;68178;52.188;5.598;2023-07-08T07:43:20;25.40;99.90
19138;DHT22;68178;52.188;5.598;2023-07-08T07:45:50;25.40;99.90
19138;DHT22;68178;52.188;5.598;2023-07-08T07:48:16;25.50;99.90
19138;DHT22;68178;52.188;5.598;2023-07-08T07:50:46;25.50;99.90
19138;DHT22;68178;52.188;5.598;2023-07-08T07:53:11;25.70;99.90
19138;DHT22;68178;52.188;5.598;2023-07-08T07:55:37;25.70;99.90
19138;DHT22;68178;52.188;5.598;2023-07-08T07:58:03;25.90;99.90
19138;DHT22;68178;52.188;5.598;2023-07-08T08:00:30;25.90;99.90
19138;DHT22;68178;52.188;5.598;2023-07-08T08:02:56;26.00;99.90
19138;DHT22;68178;52.188;5.598;2023-07-08T08:05:21;25.90;99.90
19138;DHT22;68178;52.188;5.598;2023-07-08T08:07:47;26.10;99.90
19138;DHT22;68178;52.188;5.598;2023-07-08T08:10:13;26.20;99.90
19138;DHT22;68178;52.188;5.598;2023-07-08T08:12:42;26.40;99.90
19138;DHT22;68178;52.188;5.598;2023-07-08T08:15:08;26.50;99.90
19138;DHT22;68178;52.188;5.598;2023-07-08T08:17:34;26.70;99.90
19138;DHT22;68178;52.188;5.598;2023-07-08T08:19:59;26.90;99.90
19138;DHT22;68178;52.188;5.598;2023-07-08T08:22:25;26.90;99.90
19138;DHT22;68178;52.188;5.598;2023-07-08T08:24:51;27.10;99.90
19138;DHT22;68178;52.188;5.598;2023-07-08T08:27:16;27.10;99.90
19138;DHT22;68178;52.188;5.598;2023-07-08T08:29:42;27.20;99.90
19138;DHT22;68178;52.188;5.598;2023-07-08T08:32:07;27.30;99.90
19138;DHT22;68178;52.188;5.598;2023-07-08T08:34:33;27.40;99.90
19138;DHT22;68178;52.188;5.598;2023-07-08T08:36:59;27.60;99.90
19138;DHT22;68178;52.188;5.598;2023-07-08T08:39:24;27.60;99.90
19138;DHT22;68178;52.188;5.598;2023-07-08T08:41:52;27.80;99.90
19138;DHT22;68178;52.188;5.598;2023-07-08T08:44:29;27.80;99.90
19138;DHT22;68178;52.188;5.598;2023-07-08T08:47:37;28.00;99.90
19138;DHT22;68178;52.188;5.598;2023-07-08T08:50:00;28.00;99.90
19138;DHT22;68178;52.188;5.598;2023-07-08T08:52:27;28.10;99.90
19138;DHT22;68178;52.188;5.598;2023-07-08T08:54:52;27.90;99.70
19138;DHT22;68178;52.188;5.598;2023-07-08T08:57:37;28.00;99.90
19138;DHT22;68178;52.188;5.598;2023-07-08T09:00:09;28.10;99.90
19138;DHT22;68178;52.188;5.598;2023-07-08T09:05:22;28.50;99.60
19138;DHT22;68178;52.188;5.598;2023-07-08T09:13:02;28.50;97.90
19138;DHT22;68178;52.188;5.598;2023-07-08T09:15:29;28.50;98.00
19138;DHT22;68178;52.188;5.598;2023-07-08T09:18:00;28.60;98.60
19138;DHT22;68178;52.188;5.598;2023-07-08T09:20:28;28.70;98.60
19138;DHT22;68178;52.188;5.598;2023-07-08T09:25:58;29.10;97.50
19138;DHT22;68178;52.188;5.598;2023-07-08T09:28:57;29.10;97.20
19138;DHT22;68178;52.188;5.598;2023-07-08T09:31:30;29.10;97.20
19138;DHT22;68178;52.188;5.598;2023-07-08T09:36:38;29.40;97.10
19138;DHT22;68178;52.188;5.598;2023-07-08T09:39:03;29.50;96.90
19138;DHT22;68178;52.188;5.598;2023-07-08T09:41:32;29.40;97.90
19138;DHT22;68178;52.188;5.598;2023-07-08T09:46:52;29.80;96.70
19138;DHT22;68178;52.188;5.598;2023-07-08T09:49:27;29.70;97.10
19138;DHT22;68178;52.188;5.598;2023-07-08T09:51:54;29.70;96.50
19138;DHT22;68178;52.188;5.598;2023-07-08T09:54:22;29.80;97.30
19138;DHT22;68178;52.188;5.598;2023-07-08T09:57:00;29.90;96.40
19138;DHT22;68178;52.188;5.598;2023-07-08T09:59:32;29.90;97.60
19138;DHT22;68178;52.188;5.598;2023-07-08T10:02:02;30.10;97.70
19138;DHT22;68178;52.188;5.598;2023-07-08T10:04:28;30.20;95.70
19138;DHT22;68178;52.188;5.598;2023-07-08T10:06:54;30.20;94.70
19138;DHT22;68178;52.188;5.598;2023-07-08T10:09:24;30.30;95.50
19138;DHT22;68178;52.188;5.598;2023-07-08T10:12:00;30.50;95.10
19138;DHT22;68178;52.188;5.598;2023-07-08T10:14:34;30.50;96.20
19138;DHT22;68178;52.188;5.598;2023-07-08T10:17:01;30.70;95.10
19138;DHT22;68178;52.188;5.598;2023-07-08T10:19:27;30.60;94.20
19138;DHT22;68178;52.188;5.598;2023-07-08T10:30:18;30.90;94.30
19138;DHT22;68178;52.188;5.598;2023-07-08T10:35:37;31.20;94.50
19138;DHT22;68178;52.188;5.598;2023-07-08T10:41:00;31.50;93.70
19138;DHT22;68178;52.188;5.598;2023-07-08T10:59:59;32.40;93.40
19138;DHT22;68178;52.188;5.598;2023-07-08T11:08:18;32.70;90.30
19138;DHT22;68178;52.188;5.598;2023-07-08T11:13:18;33.10;91.00
19138;DHT22;68178;52.188;5.598;2023-07-08T11:16:40;33.10;90.70
19138;DHT22;68178;52.188;5.598;2023-07-08T11:18:55;33.40;91.30
19138;DHT22;68178;52.188;5.598;2023-07-08T11:21:32;33.50;90.10
19138;DHT22;68178;52.188;5.598;2023-07-08T11:27:13;33.80;88.40
19138;DHT22;68178;52.188;5.598;2023-07-08T11:32:16;34.10;88.40
19138;DHT22;68178;52.188;5.598;2023-07-08T11:34:44;33.90;87.10
19138;DHT22;68178;52.188;5.598;2023-07-08T11:37:13;34.00;86.70
19138;DHT22;68178;52.188;5.598;2023-07-08T11:39:42;34.30;89.00
19138;DHT22;68178;52.188;5.598;2023-07-08T11:42:43;34.20;85.10
19138;DHT22;68178;52.188;5.598;2023-07-08T11:45:26;34.30;84.00
19138;DHT22;68178;52.188;5.598;2023-07-08T11:47:52;34.60;84.40
19138;DHT22;68178;52.188;5.598;2023-07-08T11:50:31;34.70;84.20
19138;DHT22;68178;52.188;5.598;2023-07-08T11:53:37;35.00;84.80
19138;DHT22;68178;52.188;5.598;2023-07-08T11:56:05;35.00;82.70
19138;DHT22;68178;52.188;5.598;2023-07-08T12:04:15;35.30;81.40
19138;DHT22;68178;52.188;5.598;2023-07-08T12:06:46;35.40;79.80
19138;DHT22;68178;52.188;5.598;2023-07-08T12:09:28;35.60;83.60
19138;DHT22;68178;52.188;5.598;2023-07-08T12:12:02;35.70;80.90
19138;DHT22;68178;52.188;5.598;2023-07-08T12:14:29;35.60;79.80
19138;DHT22;68178;52.188;5.598;2023-07-08T12:16:55;35.70;79.00
19138;DHT22;68178;52.188;5.598;2023-07-08T12:19:23;35.50;81.40
19138;DHT22;68178;52.188;5.598;2023-07-08T12:21:51;35.20;79.30
19138;DHT22;68178;52.188;5.598;2023-07-08T12:24:18;35.30;78.00
19138;DHT22;68178;52.188;5.598;2023-07-08T12:26:44;35.50;80.00
19138;DHT22;68178;52.188;5.598;2023-07-08T12:29:12;35.60;77.00
19138;DHT22;68178;52.188;5.598;2023-07-08T12:31:39;35.70;77.20
19138;DHT22;68178;52.188;5.598;2023-07-08T12:34:11;35.80;77.70
19138;DHT22;68178;52.188;5.598;2023-07-08T12:36:39;35.90;76.40
19138;DHT22;68178;52.188;5.598;2023-07-08T12:39:05;36.00;75.50
19138;DHT22;68178;52.188;5.598;2023-07-08T12:41:33;36.00;78.40
19138;DHT22;68178;52.188;5.598;2023-07-08T12:44:00;35.90;73.00
19138;DHT22;68178;52.188;5.598;2023-07-08T12:46:27;35.80;74.20
19138;DHT22;68178;52.188;5.598;2023-07-08T12:48:53;35.50;71.90
19138;DHT22;68178;52.188;5.598;2023-07-08T12:51:21;35.70;72.40
19138;DHT22;68178;52.188;5.598;2023-07-08T12:53:47;35.90;73.50
19138;DHT22;68178;52.188;5.598;2023-07-08T12:56:14;36.10;75.30
19138;DHT22;68178;52.188;5.598;2023-07-08T12:58:43;36.10;73.20
19138;DHT22;68178;52.188;5.598;2023-07-08T13:01:16;36.10;72.00
19138;DHT22;68178;52.188;5.598;2023-07-08T13:03:44;35.90;73.70
19138;DHT22;68178;52.188;5.598;2023-07-08T13:06:16;35.80;74.00
19138;DHT22;68178;52.188;5.598;2023-07-08T13:08:43;36.00;74.60
19138;DHT22;68178;52.188;5.598;2023-07-08T13:11:11;36.10;75.00
19138;DHT22;68178;52.188;5.598;2023-07-08T13:13:53;36.30;73.80
19138;DHT22;68178;52.188;5.598;2023-07-08T13:16:19;36.30;73.10
19138;DHT22;68178;52.188;5.598;2023-07-08T13:18:47;36.10;73.20
19138;DHT22;68178;52.188;5.598;2023-07-08T13:21:15;36.10;73.20
19138;DHT22;68178;52.188;5.598;2023-07-08T13:23:42;36.20;73.40
19138;DHT22;68178;52.188;5.598;2023-07-08T13:26:14;36.40;76.30
19138;DHT22;68178;52.188;5.598;2023-07-08T13:28:41;36.30;73.00
19138;DHT22;68178;52.188;5.598;2023-07-08T13:31:18;36.40;74.30
19138;DHT22;68178;52.188;5.598;2023-07-08T13:33:54;36.60;72.70
19138;DHT22;68178;52.188;5.598;2023-07-08T13:36:29;36.80;69.90
19138;DHT22;68178;52.188;5.598;2023-07-08T13:38:56;36.80;70.50
19138;DHT22;68178;52.188;5.598;2023-07-08T13:41:22;36.60;70.10
19138;DHT22;68178;52.188;5.598;2023-07-08T13:43:49;36.50;71.90
19138;DHT22;68178;52.188;5.598;2023-07-08T13:46:37;36.10;71.50
19138;DHT22;68178;52.188;5.598;2023-07-08T13:51:36;36.40;74.30
19138;DHT22;68178;52.188;5.598;2023-07-08T13:54:13;36.50;71.80
19138;DHT22;68178;52.188;5.598;2023-07-08T13:56:41;36.50;71.50
19138;DHT22;68178;52.188;5.598;2023-07-08T13:59:09;36.40;71.90
19138;DHT22;68178;52.188;5.598;2023-07-08T14:01:38;36.40;71.50
19138;DHT22;68178;52.188;5.598;2023-07-08T14:04:05;36.40;70.50
19138;DHT22;68178;52.188;5.598;2023-07-08T14:06:34;36.50;72.80
19138;DHT22;68178;52.188;5.598;2023-07-08T14:09:14;36.50;70.40
19138;DHT22;68178;52.188;5.598;2023-07-08T14:11:41;36.70;71.60
19138;DHT22;68178;52.188;5.598;2023-07-08T14:14:08;36.70;70.40
19138;DHT22;68178;52.188;5.598;2023-07-08T14:16:35;36.80;70.20
19138;DHT22;68178;52.188;5.598;2023-07-08T14:19:04;36.80;70.00
19138;DHT22;68178;52.188;5.598;2023-07-08T14:21:32;36.80;70.90
19138;DHT22;68178;52.188;5.598;2023-07-08T14:23:58;36.90;70.30
19138;DHT22;68178;52.188;5.598;2023-07-08T14:26:23;36.80;73.80
19138;DHT22;68178;52.188;5.598;2023-07-08T14:28:49;37.00;73.30
19138;DHT22;68178;52.188;5.598;2023-07-08T14:31:19;36.80;70.20
19138;DHT22;68178;52.188;5.598;2023-07-08T14:33:45;36.70;71.10
19138;DHT22;68178;52.188;5.598;2023-07-08T14:36:12;36.60;72.10
19138;DHT22;68178;52.188;5.598;2023-07-08T14:38:37;36.60;72.70
19138;DHT22;68178;52.188;5.598;2023-07-08T14:41:03;36.40;71.00
19138;DHT22;68178;52.188;5.598;2023-07-08T14:43:31;36.20;73.40
19138;DHT22;68178;52.188;5.598;2023-07-08T14:46:00;36.10;72.10
19138;DHT22;68178;52.188;5.598;2023-07-08T14:48:28;35.90;71.00
19138;DHT22;68178;52.188;5.598;2023-07-08T14:50:54;35.70;73.10
19138;DHT22;68178;52.188;5.598;2023-07-08T14:53:19;35.60;72.80
19138;DHT22;68178;52.188;5.598;2023-07-08T14:55:48;35.50;72.50
19138;DHT22;68178;52.188;5.598;2023-07-08T14:58:25;35.40;72.20
19138;DHT22;68178;52.188;5.598;2023-07-08T15:00:54;35.30;73.10
19138;DHT22;68178;52.188;5.598;2023-07-08T15:03:20;35.30;71.30
19138;DHT22;68178;52.188;5.598;2023-07-08T15:05:45;35.40;70.30
19138;DHT22;68178;52.188;5.598;2023-07-08T15:08:11;35.20;69.20
19138;DHT22;68178;52.188;5.598;2023-07-08T15:10:41;35.00;67.90
19138;DHT22;68178;52.188;5.598;2023-07-08T15:13:09;34.90;69.40
19138;DHT22;68178;52.188;5.598;2023-07-08T15:15:35;34.80;70.20
19138;DHT22;68178;52.188;5.598;2023-07-08T15:18:03;34.80;70.30
19138;DHT22;68178;52.188;5.598;2023-07-08T15:20:32;34.60;69.80
19138;DHT22;68178;52.188;5.598;2023-07-08T15:22:57;34.60;71.10
19138;DHT22;68178;52.188;5.598;2023-07-08T15:25:23;34.60;74.30
19138;DHT22;68178;52.188;5.598;2023-07-08T15:27:52;34.60;71.50
19138;DHT22;68178;52.188;5.598;2023-07-08T15:30:28;34.50;70.30
19138;DHT22;68178;52.188;5.598;2023-07-08T15:32:55;34.50;72.00
19138;DHT22;68178;52.188;5.598;2023-07-08T15:35:28;34.40;71.50
19138;DHT22;68178;52.188;5.598;2023-07-08T15:37:59;34.40;74.00
19138;DHT22;68178;52.188;5.598;2023-07-08T15:40:28;34.30;72.90
19138;DHT22;68178;52.188;5.598;2023-07-08T15:42:55;34.30;73.80
19138;DHT22;68178;52.188;5.598;2023-07-08T15:45:32;34.30;72.90
19138;DHT22;68178;52.188;5.598;2023-07-08T15:47:58;34.20;73.90
19138;DHT22;68178;52.188;5.598;2023-07-08T15:50:25;34.20;74.30
19138;DHT22;68178;52.188;5.598;2023-07-08T15:52:52;34.30;73.90
19138;DHT22;68178;52.188;5.598;2023-07-08T15:58:00;34.20;75.50
19138;DHT22;68178;52.188;5.598;2023-07-08T16:00:29;34.20;75.80
19138;DHT22;68178;52.188;5.598;2023-07-08T16:02:58;34.30;75.80
19138;DHT22;68178;52.188;5.598;2023-07-08T16:05:25;34.20;75.00
19138;DHT22;68178;52.188;5.598;2023-07-08T16:07:53;34.10;74.70
19138;DHT22;68178;52.188;5.598;2023-07-08T16:10:19;34.10;74.40
19138;DHT22;68178;52.188;5.598;2023-07-08T16:12:45;34.00;75.60
19138;DHT22;68178;52.188;5.598;2023-07-08T16:15:23;33.90;74.20
19138;DHT22;68178;52.188;5.598;2023-07-08T16:17:50;33.90;73.70
19138;DHT22;68178;52.188;5.598;2023-07-08T16:20:21;33.80;74.60
19138;DHT22;68178;52.188;5.598;2023-07-08T16:22:48;33.70;73.70
19138;DHT22;68178;52.188;5.598;2023-07-08T16:25:18;33.60;73.80
19138;DHT22;68178;52.188;5.598;2023-07-08T16:27:46;33.50;75.20
19138;DHT22;68178;52.188;5.598;2023-07-08T16:30:17;33.50;74.80
19138;DHT22;68178;52.188;5.598;2023-07-08T16:32:44;33.50;74.70
19138;DHT22;68178;52.188;5.598;2023-07-08T16:35:12;33.50;74.80
19138;DHT22;68178;52.188;5.598;2023-07-08T16:37:38;33.50;74.90
19138;DHT22;68178;52.188;5.598;2023-07-08T16:40:05;33.50;74.80
19138;DHT22;68178;52.188;5.598;2023-07-08T16:42:34;33.60;75.60
19138;DHT22;68178;52.188;5.598;2023-07-08T16:45:00;33.60;77.70
19138;DHT22;68178;52.188;5.598;2023-07-08T16:47:26;33.70;77.30
19138;DHT22;68178;52.188;5.598;2023-07-08T16:49:51;33.70;78.70
19138;DHT22;68178;52.188;5.598;2023-07-08T16:52:17;33.60;78.00
19138;DHT22;68178;52.188;5.598;2023-07-08T16:54:43;33.70;78.90
19138;DHT22;68178;52.188;5.598;2023-07-08T16:57:09;33.70;77.80